sensor_id;sensor_type;location;lat;lon;timestamp;pressure;altitude;pressure_sealevel;temperature;humidity
70437;BME280;57877;39.750;-104.894;2023-04-27T00:01:52;83712.91;;;15.36;20.64
70437;BME280;57877;39.750;-104.894;2023-04-27T00:04:17;83717.41;;;15.76;20.18
70437;BME280;57877;39.750;-104.894;2023-04-27T00:06:42;83714.88;;;15.87;20.49
70437;BME280;57877;39.750;-104.894;2023-04-27T00:09:07;83715.47;;;16.07;20.19
70437;BME280;57877;39.750;-104.894;2023-04-27T00:11:32;83711.75;;;16.10;20.07
70437;BME280;57877;39.750;-104.894;2023-04-27T00:13:57;83708.35;;;16.67;19.87
70437;BME280;57877;39.750;-104.894;2023-04-27T00:16:22;83707.55;;;15.52;21.13
70437;BME280;57877;39.750;-104.894;2023-04-27T00:18:48;83705.99;;;15.69;20.93
70437;BME280;57877;39.750;-104.894;2023-04-27T00:21:13;83706.03;;;15.34;21.34
70437;BME280;57877;39.750;-104.894;2023-04-27T00:23:38;83699.46;;;14.85;21.40
70437;BME280;57877;39.750;-104.894;2023-04-27T00:26:03;83698.69;;;14.39;21.29
70437;BME280;57877;39.750;-104.894;2023-04-27T00:28:28;83697.11;;;15.29;21.11
70437;BME280;57877;39.750;-104.894;2023-04-27T00:30:54;83694.48;;;15.14;21.50
70437;BME280;57877;39.750;-104.894;2023-04-27T00:33:19;83695.20;;;15.49;20.71
70437;BME280;57877;39.750;-104.894;2023-04-27T00:35:44;83690.55;;;14.98;21.40
70437;BME280;57877;39.750;-104.894;2023-04-27T00:38:09;83686.85;;;14.86;21.85
70437;BME280;57877;39.750;-104.894;2023-04-27T00:40:34;83684.98;;;15.21;21.09
70437;BME280;57877;39.750;-104.894;2023-04-27T00:42:59;83683.54;;;14.93;22.20
70437;BME280;57877;39.750;-104.894;2023-04-27T00:45:26;83684.77;;;15.23;22.08
70437;BME280;57877;39.750;-104.894;2023-04-27T00:47:50;83686.80;;;15.45;21.71
70437;BME280;57877;39.750;-104.894;2023-04-27T00:50:16;83689.08;;;15.71;21.45
70437;BME280;57877;39.750;-104.894;2023-04-27T00:52:41;83688.56;;;15.29;21.31
70437;BME280;57877;39.750;-104.894;2023-04-27T00:55:08;83690.10;;;15.33;21.46
70437;BME280;57877;39.750;-104.894;2023-04-27T00:57:33;83689.49;;;15.42;20.68
70437;BME280;57877;39.750;-104.894;2023-04-27T00:59:59;83687.75;;;15.75;20.50
70437;BME280;57877;39.750;-104.894;2023-04-27T01:02:22;83687.90;;;15.39;20.20
70437;BME280;57877;39.750;-104.894;2023-04-27T01:04:48;83680.46;;;15.12;20.82
70437;BME280;57877;39.750;-104.894;2023-04-27T01:07:13;83677.53;;;15.46;21.14
70437;BME280;57877;39.750;-104.894;2023-04-27T01:09:38;83676.87;;;14.74;21.42
70437;BME280;57877;39.750;-104.894;2023-04-27T01:12:03;83677.48;;;15.04;21.54
70437;BME280;57877;39.750;-104.894;2023-04-27T01:14:27;83678.44;;;14.63;22.38
70437;BME280;57877;39.750;-104.894;2023-04-27T01:16:53;83679.76;;;15.20;22.06
70437;BME280;57877;39.750;-104.894;2023-04-27T01:19:19;83680.55;;;14.74;22.62
70437;BME280;57877;39.750;-104.894;2023-04-27T01:21:44;83681.74;;;15.04;22.35
70437;BME280;57877;39.750;-104.894;2023-04-27T01:24:09;83682.39;;;15.04;22.14
70437;BME280;57877;39.750;-104.894;2023-04-27T01:26:34;83682.12;;;14.78;22.05
70437;BME280;57877;39.750;-104.894;2023-04-27T01:29:00;83681.21;;;14.83;22.10
70437;BME280;57877;39.750;-104.894;2023-04-27T01:31:25;83684.45;;;14.62;22.58
70437;BME280;57877;39.750;-104.894;2023-04-27T01:33:50;83686.03;;;14.81;22.76
70437;BME280;57877;39.750;-104.894;2023-04-27T01:36:15;83685.12;;;14.53;22.61
70437;BME280;57877;39.750;-104.894;2023-04-27T01:38:40;83684.93;;;14.31;22.78
70437;BME280;57877;39.750;-104.894;2023-04-27T01:41:05;83685.47;;;14.47;22.62
70437;BME280;57877;39.750;-104.894;2023-04-27T01:43:30;83686.49;;;14.66;22.99
70437;BME280;57877;39.750;-104.894;2023-04-27T01:45:55;83684.61;;;14.54;23.17
70437;BME280;57877;39.750;-104.894;2023-04-27T01:48:20;83686.01;;;14.49;22.68
70437;BME280;57877;39.750;-104.894;2023-04-27T01:50:45;83691.96;;;14.50;22.99
70437;BME280;57877;39.750;-104.894;2023-04-27T01:53:10;83686.48;;;14.56;22.98
70437;BME280;57877;39.750;-104.894;2023-04-27T01:55:35;83683.43;;;14.13;23.13
70437;BME280;57877;39.750;-104.894;2023-04-27T01:58:00;83684.39;;;14.25;23.05
70437;BME280;57877;39.750;-104.894;2023-04-27T02:00:25;83690.14;;;14.17;23.03
70437;BME280;57877;39.750;-104.894;2023-04-27T02:02:50;83693.28;;;13.72;24.10
70437;BME280;57877;39.750;-104.894;2023-04-27T02:05:15;83694.15;;;13.56;23.77
70437;BME280;57877;39.750;-104.894;2023-04-27T02:07:40;83697.28;;;14.17;23.41
70437;BME280;57877;39.750;-104.894;2023-04-27T02:10:06;83695.57;;;13.76;23.63
70437;BME280;57877;39.750;-104.894;2023-04-27T02:12:30;83699.31;;;13.90;23.69
70437;BME280;57877;39.750;-104.894;2023-04-27T02:14:55;83705.88;;;13.60;24.21
70437;BME280;57877;39.750;-104.894;2023-04-27T02:17:20;83703.21;;;13.40;24.81
70437;BME280;57877;39.750;-104.894;2023-04-27T02:19:46;83702.53;;;12.80;25.19
70437;BME280;57877;39.750;-104.894;2023-04-27T02:22:11;83698.54;;;13.01;24.65
70437;BME280;57877;39.750;-104.894;2023-04-27T02:24:36;83698.14;;;13.35;24.23
70437;BME280;57877;39.750;-104.894;2023-04-27T02:27:01;83699.60;;;13.27;24.01
70437;BME280;57877;39.750;-104.894;2023-04-27T02:29:30;83700.38;;;13.38;24.10
70437;BME280;57877;39.750;-104.894;2023-04-27T02:31:52;83701.81;;;13.12;24.17
70437;BME280;57877;39.750;-104.894;2023-04-27T02:34:18;83699.62;;;13.13;24.30
70437;BME280;57877;39.750;-104.894;2023-04-27T02:36:42;83700.59;;;13.39;24.34
70437;BME280;57877;39.750;-104.894;2023-04-27T02:39:08;83702.03;;;13.53;24.55
70437;BME280;57877;39.750;-104.894;2023-04-27T02:41:33;83707.27;;;13.36;24.81
70437;BME280;57877;39.750;-104.894;2023-04-27T02:43:58;83710.30;;;13.15;25.00
70437;BME280;57877;39.750;-104.894;2023-04-27T02:46:23;83715.71;;;13.44;24.82
70437;BME280;57877;39.750;-104.894;2023-04-27T02:48:48;83722.30;;;13.06;25.42
70437;BME280;57877;39.750;-104.894;2023-04-27T02:51:13;83718.39;;;13.26;25.52
70437;BME280;57877;39.750;-104.894;2023-04-27T02:53:38;83723.70;;;13.31;26.11
70437;BME280;57877;39.750;-104.894;2023-04-27T02:56:04;83728.43;;;12.85;26.74
70437;BME280;57877;39.750;-104.894;2023-04-27T02:58:28;83728.54;;;12.89;26.65
70437;BME280;57877;39.750;-104.894;2023-04-27T03:00:54;83726.45;;;13.16;26.66
70437;BME280;57877;39.750;-104.894;2023-04-27T03:03:18;83730.87;;;13.07;26.89
70437;BME280;57877;39.750;-104.894;2023-04-27T03:05:43;83731.19;;;12.87;26.78
70437;BME280;57877;39.750;-104.894;2023-04-27T03:08:08;83730.17;;;13.20;26.86
70437;BME280;57877;39.750;-104.894;2023-04-27T03:10:33;83726.46;;;12.84;26.72
70437;BME280;57877;39.750;-104.894;2023-04-27T03:12:58;83729.66;;;12.98;26.91
70437;BME280;57877;39.750;-104.894;2023-04-27T03:15:23;83726.58;;;12.80;27.28
70437;BME280;57877;39.750;-104.894;2023-04-27T03:17:48;83719.87;;;12.77;27.40
70437;BME280;57877;39.750;-104.894;2023-04-27T03:20:13;83714.34;;;12.81;27.26
70437;BME280;57877;39.750;-104.894;2023-04-27T03:22:38;83711.37;;;12.46;27.71
70437;BME280;57877;39.750;-104.894;2023-04-27T03:25:04;83708.84;;;12.57;27.78
70437;BME280;57877;39.750;-104.894;2023-04-27T03:27:28;83707.89;;;12.61;27.87
70437;BME280;57877;39.750;-104.894;2023-04-27T03:29:53;83710.78;;;12.35;27.92
70437;BME280;57877;39.750;-104.894;2023-04-27T03:32:19;83713.39;;;12.45;27.77
70437;BME280;57877;39.750;-104.894;2023-04-27T03:34:44;83712.62;;;12.50;27.71
70437;BME280;57877;39.750;-104.894;2023-04-27T03:37:10;83709.49;;;12.37;28.00
70437;BME280;57877;39.750;-104.894;2023-04-27T03:39:34;83706.30;;;11.72;28.81
70437;BME280;57877;39.750;-104.894;2023-04-27T03:42:00;83702.92;;;12.26;28.38
70437;BME280;57877;39.750;-104.894;2023-04-27T03:44:25;83703.51;;;12.52;28.15
70437;BME280;57877;39.750;-104.894;2023-04-27T03:46:50;83702.85;;;11.94;28.31
70437;BME280;57877;39.750;-104.894;2023-04-27T03:49:16;83698.07;;;11.77;28.78
70437;BME280;57877;39.750;-104.894;2023-04-27T03:51:41;83697.64;;;11.90;28.88
70437;BME280;57877;39.750;-104.894;2023-04-27T03:54:06;83698.47;;;11.68;29.10
70437;BME280;57877;39.750;-104.894;2023-04-27T03:56:31;83694.58;;;11.71;28.70
70437;BME280;57877;39.750;-104.894;2023-04-27T03:58:56;83692.45;;;11.35;28.75
70437;BME280;57877;39.750;-104.894;2023-04-27T04:01:22;83694.52;;;11.81;28.59
70437;BME280;57877;39.750;-104.894;2023-04-27T04:03:47;83693.25;;;11.33;28.77
70437;BME280;57877;39.750;-104.894;2023-04-27T04:06:12;83693.76;;;11.45;28.57
70437;BME280;57877;39.750;-104.894;2023-04-27T04:08:38;83690.37;;;11.28;28.85
70437;BME280;57877;39.750;-104.894;2023-04-27T04:11:03;83690.34;;;12.02;28.61
70437;BME280;57877;39.750;-104.894;2023-04-27T04:13:28;83687.08;;;11.55;28.64
70437;BME280;57877;39.750;-104.894;2023-04-27T04:16:00;83682.75;;;11.46;28.90
70437;BME280;57877;39.750;-104.894;2023-04-27T04:18:20;83685.19;;;11.27;29.22
70437;BME280;57877;39.750;-104.894;2023-04-27T04:20:45;83686.45;;;11.09;29.64
70437;BME280;57877;39.750;-104.894;2023-04-27T04:23:11;83684.03;;;11.20;29.68
70437;BME280;57877;39.750;-104.894;2023-04-27T04:25:36;83684.51;;;11.18;30.02
70437;BME280;57877;39.750;-104.894;2023-04-27T04:28:01;83683.59;;;10.97;30.37
70437;BME280;57877;39.750;-104.894;2023-04-27T04:30:26;83680.91;;;11.31;30.37
70437;BME280;57877;39.750;-104.894;2023-04-27T04:32:51;83681.41;;;11.19;30.30
70437;BME280;57877;39.750;-104.894;2023-04-27T04:35:16;83679.11;;;11.15;30.50
70437;BME280;57877;39.750;-104.894;2023-04-27T04:37:41;83673.43;;;10.30;31.73
70437;BME280;57877;39.750;-104.894;2023-04-27T04:40:07;83671.46;;;10.57;31.95
70437;BME280;57877;39.750;-104.894;2023-04-27T04:42:31;83667.41;;;10.73;32.00
70437;BME280;57877;39.750;-104.894;2023-04-27T04:44:56;83664.26;;;10.21;32.74
70437;BME280;57877;39.750;-104.894;2023-04-27T04:47:21;83659.79;;;10.15;32.99
70437;BME280;57877;39.750;-104.894;2023-04-27T04:49:46;83652.26;;;9.92;33.16
70437;BME280;57877;39.750;-104.894;2023-04-27T04:52:11;83649.23;;;9.97;33.45
70437;BME280;57877;39.750;-104.894;2023-04-27T04:54:36;83647.74;;;9.52;33.92
70437;BME280;57877;39.750;-104.894;2023-04-27T04:57:02;83647.75;;;9.75;33.99
70437;BME280;57877;39.750;-104.894;2023-04-27T04:59:26;83643.94;;;9.74;33.98
70437;BME280;57877;39.750;-104.894;2023-04-27T05:01:51;83643.17;;;9.70;34.08
70437;BME280;57877;39.750;-104.894;2023-04-27T05:04:16;83646.42;;;9.99;33.71
70437;BME280;57877;39.750;-104.894;2023-04-27T05:06:42;83639.60;;;9.43;34.16
70437;BME280;57877;39.750;-104.894;2023-04-27T05:09:07;83638.12;;;9.76;34.03
70437;BME280;57877;39.750;-104.894;2023-04-27T05:11:32;83635.82;;;9.94;33.72
70437;BME280;57877;39.750;-104.894;2023-04-27T05:13:57;83630.09;;;9.50;34.05
70437;BME280;57877;39.750;-104.894;2023-04-27T05:16:22;83627.39;;;9.50;35.67
70437;BME280;57877;39.750;-104.894;2023-04-27T05:18:47;83624.54;;;9.42;34.17
70437;BME280;57877;39.750;-104.894;2023-04-27T05:21:16;83622.82;;;9.13;34.38
70437;BME280;57877;39.750;-104.894;2023-04-27T05:23:37;83619.50;;;8.97;34.66
70437;BME280;57877;39.750;-104.894;2023-04-27T05:26:12;83619.94;;;8.79;35.04
70437;BME280;57877;39.750;-104.894;2023-04-27T05:28:27;83618.48;;;8.88;35.37
70437;BME280;57877;39.750;-104.894;2023-04-27T05:30:52;83617.84;;;8.91;35.18
70437;BME280;57877;39.750;-104.894;2023-04-27T05:33:17;83616.11;;;8.49;35.86
70437;BME280;57877;39.750;-104.894;2023-04-27T05:35:42;83609.66;;;8.41;35.60
70437;BME280;57877;39.750;-104.894;2023-04-27T05:38:07;83609.62;;;8.57;35.62
70437;BME280;57877;39.750;-104.894;2023-04-27T05:40:32;83611.72;;;8.79;35.65
70437;BME280;57877;39.750;-104.894;2023-04-27T05:42:58;83607.90;;;8.69;35.42
70437;BME280;57877;39.750;-104.894;2023-04-27T05:45:23;83609.89;;;8.67;35.25
70437;BME280;57877;39.750;-104.894;2023-04-27T05:47:50;83607.15;;;8.97;34.95
70437;BME280;57877;39.750;-104.894;2023-04-27T05:50:15;83602.66;;;9.07;34.94
70437;BME280;57877;39.750;-104.894;2023-04-27T05:52:40;83602.61;;;8.41;35.38
70437;BME280;57877;39.750;-104.894;2023-04-27T05:55:06;83599.66;;;8.64;34.82
70437;BME280;57877;39.750;-104.894;2023-04-27T05:57:30;83596.07;;;8.70;34.83
70437;BME280;57877;39.750;-104.894;2023-04-27T05:59:55;83592.45;;;8.65;34.68
70437;BME280;57877;39.750;-104.894;2023-04-27T06:02:20;83588.90;;;8.94;34.71
70437;BME280;57877;39.750;-104.894;2023-04-27T06:04:45;83586.33;;;8.10;35.49
70437;BME280;57877;39.750;-104.894;2023-04-27T06:07:11;83581.09;;;8.44;35.39
70437;BME280;57877;39.750;-104.894;2023-04-27T06:09:35;83581.82;;;8.18;35.37
70437;BME280;57877;39.750;-104.894;2023-04-27T06:12:00;83582.19;;;8.24;35.21
70437;BME280;57877;39.750;-104.894;2023-04-27T06:14:26;83582.59;;;8.31;35.51
70437;BME280;57877;39.750;-104.894;2023-04-27T06:16:51;83578.95;;;8.44;35.29
70437;BME280;57877;39.750;-104.894;2023-04-27T06:19:16;83577.93;;;8.49;35.22
70437;BME280;57877;39.750;-104.894;2023-04-27T06:21:41;83581.29;;;8.05;35.68
70437;BME280;57877;39.750;-104.894;2023-04-27T06:24:07;83579.86;;;8.09;35.73
70437;BME280;57877;39.750;-104.894;2023-04-27T06:26:31;83580.74;;;8.12;35.68
70437;BME280;57877;39.750;-104.894;2023-04-27T06:28:56;83583.91;;;8.39;35.23
70437;BME280;57877;39.750;-104.894;2023-04-27T06:31:21;83581.01;;;8.22;35.40
70437;BME280;57877;39.750;-104.894;2023-04-27T06:33:46;83583.42;;;8.22;35.67
70437;BME280;57877;39.750;-104.894;2023-04-27T06:36:11;83584.17;;;8.29;35.43
70437;BME280;57877;39.750;-104.894;2023-04-27T06:38:36;83575.44;;;8.07;35.39
70437;BME280;57877;39.750;-104.894;2023-04-27T06:41:01;83579.70;;;7.98;35.47
70437;BME280;57877;39.750;-104.894;2023-04-27T06:43:26;83574.91;;;8.57;35.18
70437;BME280;57877;39.750;-104.894;2023-04-27T06:45:51;83571.91;;;8.48;34.90
70437;BME280;57877;39.750;-104.894;2023-04-27T06:48:17;83573.43;;;8.50;34.75
70437;BME280;57877;39.750;-104.894;2023-04-27T06:50:42;83573.52;;;8.30;34.99
70437;BME280;57877;39.750;-104.894;2023-04-27T06:53:08;83571.16;;;8.32;34.96
70437;BME280;57877;39.750;-104.894;2023-04-27T06:55:33;83571.04;;;8.20;35.25
70437;BME280;57877;39.750;-104.894;2023-04-27T06:57:58;83571.80;;;8.34;35.00
70437;BME280;57877;39.750;-104.894;2023-04-27T07:00:23;83570.81;;;8.27;35.17
70437;BME280;57877;39.750;-104.894;2023-04-27T07:02:48;83569.95;;;8.55;34.67
70437;BME280;57877;39.750;-104.894;2023-04-27T07:05:13;83568.33;;;8.48;34.82
70437;BME280;57877;39.750;-104.894;2023-04-27T07:07:38;83572.49;;;8.12;35.27
70437;BME280;57877;39.750;-104.894;2023-04-27T07:10:04;83568.79;;;8.29;35.08
70437;BME280;57877;39.750;-104.894;2023-04-27T07:12:28;83565.77;;;8.24;35.34
70437;BME280;57877;39.750;-104.894;2023-04-27T07:14:54;83566.17;;;8.03;35.11
70437;BME280;57877;39.750;-104.894;2023-04-27T07:17:18;83565.40;;;8.26;35.26
70437;BME280;57877;39.750;-104.894;2023-04-27T07:19:43;83567.61;;;7.76;35.99
70437;BME280;57877;39.750;-104.894;2023-04-27T07:22:08;83570.81;;;8.16;35.51
70437;BME280;57877;39.750;-104.894;2023-04-27T07:24:34;83570.20;;;7.82;35.88
70437;BME280;57877;39.750;-104.894;2023-04-27T07:26:59;83563.63;;;7.80;36.06
70437;BME280;57877;39.750;-104.894;2023-04-27T07:29:24;83559.34;;;7.97;35.69
70437;BME280;57877;39.750;-104.894;2023-04-27T07:31:49;83563.11;;;8.07;35.78
70437;BME280;57877;39.750;-104.894;2023-04-27T07:34:14;83560.88;;;8.36;35.94
70437;BME280;57877;39.750;-104.894;2023-04-27T07:36:39;83554.54;;;8.10;35.59
70437;BME280;57877;39.750;-104.894;2023-04-27T07:39:04;83544.34;;;8.04;35.70
70437;BME280;57877;39.750;-104.894;2023-04-27T07:41:29;83540.02;;;8.17;35.47
70437;BME280;57877;39.750;-104.894;2023-04-27T07:43:54;83537.99;;;8.13;35.54
70437;BME280;57877;39.750;-104.894;2023-04-27T07:46:19;83535.69;;;8.21;35.50
70437;BME280;57877;39.750;-104.894;2023-04-27T07:48:44;83533.90;;;8.11;35.68
70437;BME280;57877;39.750;-104.894;2023-04-27T07:51:09;83529.24;;;8.01;35.74
70437;BME280;57877;39.750;-104.894;2023-04-27T07:53:35;83528.64;;;8.23;35.58
70437;BME280;57877;39.750;-104.894;2023-04-27T07:55:59;83526.11;;;8.39;35.32
70437;BME280;57877;39.750;-104.894;2023-04-27T07:58:25;83528.02;;;7.81;36.15
70437;BME280;57877;39.750;-104.894;2023-04-27T08:00:50;83529.95;;;7.72;36.35
70437;BME280;57877;39.750;-104.894;2023-04-27T08:03:15;83530.43;;;7.99;36.27
70437;BME280;57877;39.750;-104.894;2023-04-27T08:05:40;83529.02;;;8.39;35.98
70437;BME280;57877;39.750;-104.894;2023-04-27T08:08:05;83528.83;;;8.47;35.38
70437;BME280;57877;39.750;-104.894;2023-04-27T08:10:30;83521.65;;;8.37;35.42
70437;BME280;57877;39.750;-104.894;2023-04-27T08:12:55;83522.35;;;8.32;35.46
70437;BME280;57877;39.750;-104.894;2023-04-27T08:15:20;83518.86;;;8.36;35.40
70437;BME280;57877;39.750;-104.894;2023-04-27T08:17:45;83514.26;;;7.95;35.93
70437;BME280;57877;39.750;-104.894;2023-04-27T08:20:11;83511.99;;;7.99;35.86
70437;BME280;57877;39.750;-104.894;2023-04-27T08:22:35;83508.85;;;8.08;35.83
70437;BME280;57877;39.750;-104.894;2023-04-27T08:25:01;83510.05;;;8.05;35.81
70437;BME280;57877;39.750;-104.894;2023-04-27T08:27:26;83508.38;;;8.26;35.58
70437;BME280;57877;39.750;-104.894;2023-04-27T08:29:51;83503.14;;;8.14;35.70
70437;BME280;57877;39.750;-104.894;2023-04-27T08:32:16;83500.16;;;8.14;35.62
70437;BME280;57877;39.750;-104.894;2023-04-27T08:34:41;83496.66;;;7.91;36.06
70437;BME280;57877;39.750;-104.894;2023-04-27T08:37:06;83492.62;;;7.81;35.79
70437;BME280;57877;39.750;-104.894;2023-04-27T08:39:31;83486.52;;;7.77;36.57
70437;BME280;57877;39.750;-104.894;2023-04-27T08:41:56;83481.59;;;7.73;36.38
70437;BME280;57877;39.750;-104.894;2023-04-27T08:44:21;83477.32;;;7.73;36.76
70437;BME280;57877;39.750;-104.894;2023-04-27T08:46:46;83472.78;;;7.28;37.10
70437;BME280;57877;39.750;-104.894;2023-04-27T08:49:12;83469.26;;;7.66;37.15
70437;BME280;57877;39.750;-104.894;2023-04-27T08:51:36;83467.47;;;7.29;37.37
70437;BME280;57877;39.750;-104.894;2023-04-27T08:54:02;83463.55;;;7.41;37.37
70437;BME280;57877;39.750;-104.894;2023-04-27T08:56:28;83458.94;;;7.51;37.37
70437;BME280;57877;39.750;-104.894;2023-04-27T08:58:52;83455.75;;;7.49;37.75
70437;BME280;57877;39.750;-104.894;2023-04-27T09:01:17;83455.87;;;7.20;38.13
70437;BME280;57877;39.750;-104.894;2023-04-27T09:03:42;83452.89;;;7.17;37.98
70437;BME280;57877;39.750;-104.894;2023-04-27T09:06:07;83451.76;;;7.32;38.22
70437;BME280;57877;39.750;-104.894;2023-04-27T09:10:57;83446.89;;;7.39;38.27
70437;BME280;57877;39.750;-104.894;2023-04-27T09:13:22;83443.97;;;7.10;38.42
70437;BME280;57877;39.750;-104.894;2023-04-27T09:15:49;83438.63;;;6.84;38.39
70437;BME280;57877;39.750;-104.894;2023-04-27T09:18:15;83435.48;;;7.07;38.22
70437;BME280;57877;39.750;-104.894;2023-04-27T09:20:42;83436.29;;;7.20;37.93
70437;BME280;57877;39.750;-104.894;2023-04-27T09:23:03;83435.33;;;7.44;37.49
70437;BME280;57877;39.750;-104.894;2023-04-27T09:25:30;83430.42;;;7.31;37.73
70437;BME280;57877;39.750;-104.894;2023-04-27T09:27:53;83428.07;;;7.51;37.48
70437;BME280;57877;39.750;-104.894;2023-04-27T09:30:19;83429.19;;;7.38;37.11
70437;BME280;57877;39.750;-104.894;2023-04-27T09:32:49;83428.61;;;7.51;36.96
70437;BME280;57877;39.750;-104.894;2023-04-27T09:35:19;83427.27;;;7.53;36.71
70437;BME280;57877;39.750;-104.894;2023-04-27T09:37:34;83428.60;;;7.60;36.91
70437;BME280;57877;39.750;-104.894;2023-04-27T09:39:59;83427.56;;;7.75;36.78
70437;BME280;57877;39.750;-104.894;2023-04-27T09:42:24;83423.27;;;7.10;37.46
70437;BME280;57877;39.750;-104.894;2023-04-27T09:44:49;83422.25;;;7.44;37.24
70437;BME280;57877;39.750;-104.894;2023-04-27T09:47:14;83419.14;;;7.11;37.75
70437;BME280;57877;39.750;-104.894;2023-04-27T09:49:39;83421.66;;;7.04;38.33
70437;BME280;57877;39.750;-104.894;2023-04-27T09:52:04;83419.72;;;6.73;38.84
70437;BME280;57877;39.750;-104.894;2023-04-27T09:54:31;83419.60;;;6.51;39.46
70437;BME280;57877;39.750;-104.894;2023-04-27T09:57:03;83418.76;;;7.13;38.62
70437;BME280;57877;39.750;-104.894;2023-04-27T09:59:32;83417.88;;;6.69;38.48
70437;BME280;57877;39.750;-104.894;2023-04-27T10:01:47;83415.61;;;7.23;37.87
70437;BME280;57877;39.750;-104.894;2023-04-27T10:04:20;83417.17;;;7.29;37.49
70437;BME280;57877;39.750;-104.894;2023-04-27T10:09:01;83414.10;;;7.26;37.16
70437;BME280;57877;39.750;-104.894;2023-04-27T10:11:36;83413.76;;;7.33;37.07
70437;BME280;57877;39.750;-104.894;2023-04-27T10:13:51;83413.22;;;7.27;36.70
70437;BME280;57877;39.750;-104.894;2023-04-27T10:16:16;83412.60;;;7.55;36.58
70437;BME280;57877;39.750;-104.894;2023-04-27T10:18:50;83415.08;;;7.32;36.92
70437;BME280;57877;39.750;-104.894;2023-04-27T10:21:10;83408.10;;;7.44;36.55
70437;BME280;57877;39.750;-104.894;2023-04-27T10:23:31;83407.73;;;6.99;37.33
70437;BME280;57877;39.750;-104.894;2023-04-27T10:28:21;83407.08;;;7.19;37.35
70437;BME280;57877;39.750;-104.894;2023-04-27T10:30:47;83406.00;;;7.00;37.02
70437;BME280;57877;39.750;-104.894;2023-04-27T10:33:16;83403.42;;;6.69;37.27
70437;BME280;57877;39.750;-104.894;2023-04-27T10:35:39;83406.80;;;6.91;37.68
70437;BME280;57877;39.750;-104.894;2023-04-27T10:38:07;83398.98;;;6.99;37.32
70437;BME280;57877;39.750;-104.894;2023-04-27T10:40:32;83397.26;;;6.91;36.92
70437;BME280;57877;39.750;-104.894;2023-04-27T10:42:53;83400.62;;;6.69;37.11
70437;BME280;57877;39.750;-104.894;2023-04-27T10:45:26;83401.65;;;6.96;36.77
70437;BME280;57877;39.750;-104.894;2023-04-27T10:47:44;83400.54;;;7.13;36.52
70437;BME280;57877;39.750;-104.894;2023-04-27T10:50:09;83398.00;;;6.99;36.60
70437;BME280;57877;39.750;-104.894;2023-04-27T10:52:33;83402.62;;;6.62;36.87
70437;BME280;57877;39.750;-104.894;2023-04-27T10:57:23;83394.75;;;7.35;36.39
70437;BME280;57877;39.750;-104.894;2023-04-27T10:59:51;83391.53;;;7.04;36.39
70437;BME280;57877;39.750;-104.894;2023-04-27T11:02:14;83395.41;;;6.89;36.33
70437;BME280;57877;39.750;-104.894;2023-04-27T11:04:39;83393.22;;;6.82;36.25
70437;BME280;57877;39.750;-104.894;2023-04-27T11:07:04;83392.95;;;7.03;36.23
70437;BME280;57877;39.750;-104.894;2023-04-27T11:09:29;83393.13;;;6.55;36.91
70437;BME280;57877;39.750;-104.894;2023-04-27T11:11:54;83390.78;;;6.69;36.79
70437;BME280;57877;39.750;-104.894;2023-04-27T11:14:19;83392.23;;;7.02;36.74
70437;BME280;57877;39.750;-104.894;2023-04-27T11:16:48;83391.13;;;7.19;36.43
70437;BME280;57877;39.750;-104.894;2023-04-27T11:19:09;83387.76;;;7.07;36.43
70437;BME280;57877;39.750;-104.894;2023-04-27T11:21:34;83383.83;;;7.05;36.30
70437;BME280;57877;39.750;-104.894;2023-04-27T11:24:04;83380.08;;;6.64;36.53
70437;BME280;57877;39.750;-104.894;2023-04-27T11:26:25;83378.99;;;6.56;36.71
70437;BME280;57877;39.750;-104.894;2023-04-27T11:28:58;83378.01;;;6.32;36.82
70437;BME280;57877;39.750;-104.894;2023-04-27T11:31:15;83378.17;;;6.67;37.08
70437;BME280;57877;39.750;-104.894;2023-04-27T11:33:47;83375.07;;;6.81;36.56
70437;BME280;57877;39.750;-104.894;2023-04-27T11:38:33;83377.77;;;7.15;35.98
70437;BME280;57877;39.750;-104.894;2023-04-27T11:41:00;83380.52;;;6.93;36.02
70437;BME280;57877;39.750;-104.894;2023-04-27T11:43:25;83382.03;;;6.92;35.95
70437;BME280;57877;39.750;-104.894;2023-04-27T11:45:46;83382.69;;;6.65;36.16
70437;BME280;57877;39.750;-104.894;2023-04-27T11:48:13;83377.56;;;6.87;35.91
70437;BME280;57877;39.750;-104.894;2023-04-27T11:50:36;83377.14;;;6.66;35.85
70437;BME280;57877;39.750;-104.894;2023-04-27T11:53:01;83380.53;;;6.72;35.81
70437;BME280;57877;39.750;-104.894;2023-04-27T11:55:26;83382.63;;;7.19;35.50
70437;BME280;57877;39.750;-104.894;2023-04-27T11:57:56;83385.75;;;7.37;34.99
70437;BME280;57877;39.750;-104.894;2023-04-27T12:00:17;83384.18;;;7.44;34.55
70437;BME280;57877;39.750;-104.894;2023-04-27T12:02:42;83384.24;;;7.28;34.65
70437;BME280;57877;39.750;-104.894;2023-04-27T12:05:07;83381.20;;;7.55;34.50
70437;BME280;57877;39.750;-104.894;2023-04-27T12:07:31;83383.23;;;7.51;35.07
70437;BME280;57877;39.750;-104.894;2023-04-27T12:09:57;83379.96;;;6.87;35.23
70437;BME280;57877;39.750;-104.894;2023-04-27T12:12:22;83377.71;;;7.40;35.27
70437;BME280;57877;39.750;-104.894;2023-04-27T12:14:47;83374.68;;;7.15;35.24
70437;BME280;57877;39.750;-104.894;2023-04-27T12:17:12;83375.62;;;7.59;34.98
70437;BME280;57877;39.750;-104.894;2023-04-27T12:19:37;83372.19;;;7.73;34.69
70437;BME280;57877;39.750;-104.894;2023-04-27T12:22:02;83371.86;;;7.66;34.57
70437;BME280;57877;39.750;-104.894;2023-04-27T12:24:27;83368.57;;;7.35;35.11
70437;BME280;57877;39.750;-104.894;2023-04-27T12:26:52;83366.67;;;8.05;34.61
70437;BME280;57877;39.750;-104.894;2023-04-27T12:29:17;83366.61;;;7.76;34.80
70437;BME280;57877;39.750;-104.894;2023-04-27T12:31:43;83365.04;;;7.71;34.77
70437;BME280;57877;39.750;-104.894;2023-04-27T12:34:07;83362.36;;;8.11;34.28
70437;BME280;57877;39.750;-104.894;2023-04-27T12:36:32;83362.65;;;8.04;34.22